sensor_id;sensor_type;location;lat;lon;timestamp;pressure;altitude;pressure_sealevel;temperature;humidity
58373;BME280;44177;43.356;27.672;2023-04-22T00:01:34;97877.19;;;8.13;76.85
58373;BME280;44177;43.356;27.672;2023-04-22T00:03:59;97874.13;;;8.15;76.20
58373;BME280;44177;43.356;27.672;2023-04-22T00:06:26;97878.78;;;8.14;75.88
58373;BME280;44177;43.356;27.672;2023-04-22T00:08:51;97862.38;;;8.35;74.74
58373;BME280;44177;43.356;27.672;2023-04-22T00:11:17;97867.94;;;8.51;73.44
58373;BME280;44177;43.356;27.672;2023-04-22T00:13:42;97865.91;;;8.48;73.22
58373;BME280;44177;43.356;27.672;2023-04-22T00:16:08;97855.56;;;8.42;73.81
58373;BME280;44177;43.356;27.672;2023-04-22T00:18:34;97859.53;;;8.44;73.60
58373;BME280;44177;43.356;27.672;2023-04-22T00:21:01;97857.72;;;8.36;73.44
58373;BME280;44177;43.356;27.672;2023-04-22T00:23:26;97855.69;;;8.33;73.56
58373;BME280;44177;43.356;27.672;2023-04-22T00:25:52;97858.53;;;8.36;72.85
58373;BME280;44177;43.356;27.672;2023-04-22T00:28:17;97867.94;;;8.51;72.28
58373;BME280;44177;43.356;27.672;2023-04-22T00:30:43;97862.25;;;8.57;71.89
58373;BME280;44177;43.356;27.672;2023-04-22T00:33:08;97867.81;;;8.60;72.20
58373;BME280;44177;43.356;27.672;2023-04-22T00:35:34;97861.13;;;8.58;72.07
58373;BME280;44177;43.356;27.672;2023-04-22T00:37:59;97854.22;;;8.60;71.87
58373;BME280;44177;43.356;27.672;2023-04-22T00:40:25;97849.59;;;8.61;72.02
58373;BME280;44177;43.356;27.672;2023-04-22T00:42:51;97855.03;;;8.61;72.28
58373;BME280;44177;43.356;27.672;2023-04-22T00:45:18;97852.31;;;8.61;71.74
58373;BME280;44177;43.356;27.672;2023-04-22T00:47:47;97849.59;;;8.61;71.69
58373;BME280;44177;43.356;27.672;2023-04-22T00:50:14;97858.53;;;8.61;72.04
58373;BME280;44177;43.356;27.672;2023-04-22T00:52:40;97857.41;;;8.62;72.94
58373;BME280;44177;43.356;27.672;2023-04-22T00:55:06;97845.41;;;8.51;71.89
58373;BME280;44177;43.356;27.672;2023-04-22T00:57:31;97857.28;;;8.71;71.29
58373;BME280;44177;43.356;27.672;2023-04-22T00:59:59;97840.31;;;8.62;70.63
58373;BME280;44177;43.356;27.672;2023-04-22T01:02:24;97855.81;;;8.61;70.88
58373;BME280;44177;43.356;27.672;2023-04-22T01:04:51;97846.88;;;8.61;70.87
58373;BME280;44177;43.356;27.672;2023-04-22T01:07:18;97855.91;;;8.65;70.78
58373;BME280;44177;43.356;27.672;2023-04-22T01:09:44;97848.47;;;8.62;70.64
58373;BME280;44177;43.356;27.672;2023-04-22T01:12:10;97845.63;;;8.58;70.56
58373;BME280;44177;43.356;27.672;2023-04-22T01:14:35;97842.31;;;8.65;69.38
58373;BME280;44177;43.356;27.672;2023-04-22T01:17:01;97848.09;;;8.63;69.49
58373;BME280;44177;43.356;27.672;2023-04-22T01:19:27;97847.78;;;8.52;69.60
58373;BME280;44177;43.356;27.672;2023-04-22T01:21:54;97842.78;;;8.42;69.70
58373;BME280;44177;43.356;27.672;2023-04-22T01:24:20;97849.56;;;8.36;69.87
58373;BME280;44177;43.356;27.672;2023-04-22T01:26:47;97848.47;;;8.25;70.35
58373;BME280;44177;43.356;27.672;2023-04-22T01:29:13;97851.38;;;8.19;70.28
58373;BME280;44177;43.356;27.672;2023-04-22T01:31:38;97848.53;;;8.16;71.09
58373;BME280;44177;43.356;27.672;2023-04-22T01:34:04;97855.22;;;8.06;71.36
58373;BME280;44177;43.356;27.672;2023-04-22T01:36:30;97858.16;;;8.01;71.33
58373;BME280;44177;43.356;27.672;2023-04-22T01:38:57;97858.84;;;7.98;71.02
58373;BME280;44177;43.356;27.672;2023-04-22T01:41:23;97850.22;;;7.96;71.32
58373;BME280;44177;43.356;27.672;2023-04-22T01:43:50;97858.84;;;7.98;71.67
58373;BME280;44177;43.356;27.672;2023-04-22T01:46:16;97861.50;;;7.85;72.44
58373;BME280;44177;43.356;27.672;2023-04-22T01:48:42;97857.44;;;7.79;73.07
58373;BME280;44177;43.356;27.672;2023-04-22T01:51:07;97864.22;;;7.85;72.97
58373;BME280;44177;43.356;27.672;2023-04-22T01:53:34;97864.94;;;7.95;72.22
58373;BME280;44177;43.356;27.672;2023-04-22T01:56:00;97850.78;;;7.89;72.31
58373;BME280;44177;43.356;27.672;2023-04-22T01:58:29;97849.31;;;7.92;72.00
58373;BME280;44177;43.356;27.672;2023-04-22T02:00:55;97858.72;;;7.94;72.30
58373;BME280;44177;43.356;27.672;2023-04-22T02:03:20;97856.00;;;7.94;72.04
58373;BME280;44177;43.356;27.672;2023-04-22T02:05:46;97852.47;;;7.94;71.96
58373;BME280;44177;43.356;27.672;2023-04-22T02:08:11;97847.75;;;7.90;72.05
58373;BME280;44177;43.356;27.672;2023-04-22T02:10:37;97847.50;;;7.83;72.69
58373;BME280;44177;43.356;27.672;2023-04-22T02:13:02;97862.88;;;7.79;72.50
58373;BME280;44177;43.356;27.672;2023-04-22T02:15:27;97856.78;;;7.82;72.05
58373;BME280;44177;43.356;27.672;2023-04-22T02:17:54;97847.38;;;7.80;71.83
58373;BME280;44177;43.356;27.672;2023-04-22T02:20:19;97853.94;;;7.79;72.01
58373;BME280;44177;43.356;27.672;2023-04-22T02:22:45;97862.75;;;7.75;72.35
58373;BME280;44177;43.356;27.672;2023-04-22T02:25:10;97850.75;;;7.64;72.06
58373;BME280;44177;43.356;27.672;2023-04-22T02:27:36;97868.06;;;7.72;72.15
58373;BME280;44177;43.356;27.672;2023-04-22T02:30:02;97854.81;;;7.70;71.82
58373;BME280;44177;43.356;27.672;2023-04-22T02:32:28;97851.09;;;7.75;71.41
58373;BME280;44177;43.356;27.672;2023-04-22T02:34:54;97859.91;;;7.72;71.83
58373;BME280;44177;43.356;27.672;2023-04-22T02:37:19;97863.03;;;7.62;72.29
58373;BME280;44177;43.356;27.672;2023-04-22T02:39:47;97865.72;;;7.49;72.84
58373;BME280;44177;43.356;27.672;2023-04-22T02:42:12;97862.28;;;7.40;73.28
58373;BME280;44177;43.356;27.672;2023-04-22T02:44:38;97868.84;;;7.39;73.64
58373;BME280;44177;43.356;27.672;2023-04-22T02:47:05;97860.19;;;7.24;73.96
58373;BME280;44177;43.356;27.672;2023-04-22T02:49:31;97862.72;;;7.30;74.00
58373;BME280;44177;43.356;27.672;2023-04-22T02:51:56;97873.25;;;7.31;74.17
58373;BME280;44177;43.356;27.672;2023-04-22T02:54:22;97869.72;;;7.31;73.93
58373;BME280;44177;43.356;27.672;2023-04-22T02:56:47;97882.16;;;7.32;73.77
58373;BME280;44177;43.356;27.672;2023-04-22T02:59:13;97874.03;;;7.32;73.94
58373;BME280;44177;43.356;27.672;2023-04-22T03:01:38;97870.88;;;7.30;73.89
58373;BME280;44177;43.356;27.672;2023-04-22T03:04:04;97869.28;;;7.29;73.84
58373;BME280;44177;43.356;27.672;2023-04-22T03:06:29;97869.72;;;7.31;74.10
58373;BME280;44177;43.356;27.672;2023-04-22T03:08:55;97867.69;;;7.27;74.15
58373;BME280;44177;43.356;27.672;2023-04-22T03:11:20;97857.28;;;7.30;74.92
58373;BME280;44177;43.356;27.672;2023-04-22T03:13:46;97843.06;;;7.11;75.20
58373;BME280;44177;43.356;27.672;2023-04-22T03:16:11;97863.00;;;7.16;75.70
58373;BME280;44177;43.356;27.672;2023-04-22T03:18:37;97857.22;;;7.17;75.51
58373;BME280;44177;43.356;27.672;2023-04-22T03:21:03;97854.78;;;7.24;75.36
58373;BME280;44177;43.356;27.672;2023-04-22T03:23:28;97855.72;;;7.29;75.01
58373;BME280;44177;43.356;27.672;2023-04-22T03:25:53;97865.22;;;7.35;74.69
58373;BME280;44177;43.356;27.672;2023-04-22T03:28:19;97863.50;;;7.30;74.78
58373;BME280;44177;43.356;27.672;2023-04-22T03:30:44;97868.06;;;7.38;73.96
58373;BME280;44177;43.356;27.672;2023-04-22T03:33:10;97861.88;;;7.17;73.00
58373;BME280;44177;43.356;27.672;2023-04-22T03:35:36;97862.59;;;7.05;73.01
58373;BME280;44177;43.356;27.672;2023-04-22T03:38:01;97886.59;;;7.15;73.36
58373;BME280;44177;43.356;27.672;2023-04-22T03:40:27;97885.03;;;7.14;73.48
58373;BME280;44177;43.356;27.672;2023-04-22T03:42:52;97881.38;;;7.10;73.70
58373;BME280;44177;43.356;27.672;2023-04-22T03:45:18;97880.72;;;7.13;73.71
58373;BME280;44177;43.356;27.672;2023-04-22T03:47:43;97896.66;;;7.15;73.90
58373;BME280;44177;43.356;27.672;2023-04-22T03:50:09;97901.09;;;7.19;73.97
58373;BME280;44177;43.356;27.672;2023-04-22T03:52:35;97895.00;;;7.22;74.35
58373;BME280;44177;43.356;27.672;2023-04-22T03:55:00;97909.03;;;7.24;73.91
58373;BME280;44177;43.356;27.672;2023-04-22T03:57:26;97898.88;;;7.21;74.04
58373;BME280;44177;43.356;27.672;2023-04-22T03:59:51;97904.06;;;7.26;74.39
58373;BME280;44177;43.356;27.672;2023-04-22T04:02:17;97916.19;;;7.29;74.54
58373;BME280;44177;43.356;27.672;2023-04-22T04:04:42;97914.84;;;7.35;74.79
58373;BME280;44177;43.356;27.672;2023-04-22T04:07:07;97912.00;;;7.32;74.68
58373;BME280;44177;43.356;27.672;2023-04-22T04:09:33;97923.13;;;7.39;74.69
58373;BME280;44177;43.356;27.672;2023-04-22T04:11:58;97930.41;;;7.47;74.45
58373;BME280;44177;43.356;27.672;2023-04-22T04:14:24;97922.63;;;7.58;74.46
58373;BME280;44177;43.356;27.672;2023-04-22T04:16:49;97928.00;;;7.67;74.52
58373;BME280;44177;43.356;27.672;2023-04-22T04:19:15;97934.84;;;7.85;74.63
58373;BME280;44177;43.356;27.672;2023-04-22T04:21:41;97915.97;;;7.89;74.25
58373;BME280;44177;43.356;27.672;2023-04-22T04:24:06;97940.03;;;8.12;73.72
58373;BME280;44177;43.356;27.672;2023-04-22T04:26:32;97946.72;;;8.27;72.99
58373;BME280;44177;43.356;27.672;2023-04-22T04:28:58;97946.28;;;8.37;73.18
58373;BME280;44177;43.356;27.672;2023-04-22T04:31:26;97948.59;;;8.47;72.90
58373;BME280;44177;43.356;27.672;2023-04-22T04:33:52;97953.25;;;8.59;72.96
58373;BME280;44177;43.356;27.672;2023-04-22T04:36:17;97954.28;;;8.67;72.72
58373;BME280;44177;43.356;27.672;2023-04-22T04:38:44;97963.56;;;8.78;73.07
58373;BME280;44177;43.356;27.672;2023-04-22T04:41:11;97970.69;;;8.95;72.72
58373;BME280;44177;43.356;27.672;2023-04-22T04:43:36;97971.03;;;9.06;72.30
58373;BME280;44177;43.356;27.672;2023-04-22T04:46:02;97972.94;;;9.18;71.16
58373;BME280;44177;43.356;27.672;2023-04-22T04:48:28;97963.97;;;9.30;71.39
58373;BME280;44177;43.356;27.672;2023-04-22T04:50:53;97960.78;;;9.40;71.07
58373;BME280;44177;43.356;27.672;2023-04-22T04:53:20;97971.50;;;9.49;70.62
58373;BME280;44177;43.356;27.672;2023-04-22T04:55:46;97977.47;;;9.67;70.68
58373;BME280;44177;43.356;27.672;2023-04-22T04:58:12;97971.00;;;9.72;69.46
58373;BME280;44177;43.356;27.672;2023-04-22T05:00:37;97972.94;;;9.71;69.45
58373;BME280;44177;43.356;27.672;2023-04-22T05:03:03;97980.47;;;9.90;68.62
58373;BME280;44177;43.356;27.672;2023-04-22T05:05:28;97982.69;;;10.01;69.07
58373;BME280;44177;43.356;27.672;2023-04-22T05:07:54;97976.88;;;10.02;68.18
58373;BME280;44177;43.356;27.672;2023-04-22T05:10:19;97997.47;;;10.16;68.17
58373;BME280;44177;43.356;27.672;2023-04-22T05:12:45;97990.84;;;10.29;68.50
58373;BME280;44177;43.356;27.672;2023-04-22T05:15:12;97992.53;;;10.34;68.50
58373;BME280;44177;43.356;27.672;2023-04-22T05:17:38;97996.50;;;10.52;68.25
58373;BME280;44177;43.356;27.672;2023-04-22T05:20:04;97990.97;;;10.49;67.62
58373;BME280;44177;43.356;27.672;2023-04-22T05:22:30;97996.34;;;10.45;67.88
58373;BME280;44177;43.356;27.672;2023-04-22T05:24:55;97998.75;;;10.34;68.05
58373;BME280;44177;43.356;27.672;2023-04-22T05:27:21;97990.47;;;10.59;68.32
58373;BME280;44177;43.356;27.672;2023-04-22T05:29:46;98003.94;;;10.84;67.91
58373;BME280;44177;43.356;27.672;2023-04-22T05:32:12;98002.41;;;11.02;66.49
58373;BME280;44177;43.356;27.672;2023-04-22T05:34:38;98013.31;;;11.18;66.21
58373;BME280;44177;43.356;27.672;2023-04-22T05:37:03;98007.66;;;11.27;65.28
58373;BME280;44177;43.356;27.672;2023-04-22T05:39:29;98001.34;;;11.43;65.47
58373;BME280;44177;43.356;27.672;2023-04-22T05:41:55;98010.44;;;11.66;64.27
58373;BME280;44177;43.356;27.672;2023-04-22T05:44:20;98011.53;;;11.81;63.28
58373;BME280;44177;43.356;27.672;2023-04-22T05:46:46;98020.41;;;11.94;63.54
58373;BME280;44177;43.356;27.672;2023-04-22T05:49:12;98018.38;;;11.91;62.19
58373;BME280;44177;43.356;27.672;2023-04-22T05:51:37;98027.56;;;11.99;62.30
58373;BME280;44177;43.356;27.672;2023-04-22T05:54:03;98011.38;;;11.94;61.30
58373;BME280;44177;43.356;27.672;2023-04-22T05:56:28;98024.72;;;12.15;60.95
58373;BME280;44177;43.356;27.672;2023-04-22T05:58:54;98025.38;;;12.28;61.70
58373;BME280;44177;43.356;27.672;2023-04-22T06:01:19;98029.00;;;12.36;60.59
58373;BME280;44177;43.356;27.672;2023-04-22T06:03:45;98029.09;;;12.62;60.80
58373;BME280;44177;43.356;27.672;2023-04-22T06:06:10;98036.91;;;12.84;61.35
58373;BME280;44177;43.356;27.672;2023-04-22T06:08:36;98031.94;;;13.16;58.89
58373;BME280;44177;43.356;27.672;2023-04-22T06:11:01;98039.03;;;13.44;56.91
58373;BME280;44177;43.356;27.672;2023-04-22T06:13:27;98037.03;;;13.41;56.26
58373;BME280;44177;43.356;27.672;2023-04-22T06:15:52;98038.09;;;13.60;56.22
58373;BME280;44177;43.356;27.672;2023-04-22T06:18:18;98037.28;;;13.89;55.86
58373;BME280;44177;43.356;27.672;2023-04-22T06:20:43;98041.78;;;13.74;55.72
58373;BME280;44177;43.356;27.672;2023-04-22T06:23:09;98048.66;;;13.88;55.89
58373;BME280;44177;43.356;27.672;2023-04-22T06:25:34;98029.56;;;14.33;54.86
58373;BME280;44177;43.356;27.672;2023-04-22T06:28:00;98031.78;;;14.58;55.07
58373;BME280;44177;43.356;27.672;2023-04-22T06:30:26;98045.88;;;14.56;54.54
58373;BME280;44177;43.356;27.672;2023-04-22T06:32:53;98046.50;;;14.42;54.07
58373;BME280;44177;43.356;27.672;2023-04-22T06:35:19;98040.16;;;14.72;53.35
58373;BME280;44177;43.356;27.672;2023-04-22T06:37:45;98047.84;;;14.97;52.63
58373;BME280;44177;43.356;27.672;2023-04-22T06:40:11;98036.63;;;15.16;52.99
58373;BME280;44177;43.356;27.672;2023-04-22T06:42:36;98046.13;;;15.30;52.57
58373;BME280;44177;43.356;27.672;2023-04-22T06:45:03;98047.84;;;14.97;51.57
58373;BME280;44177;43.356;27.672;2023-04-22T06:47:28;98058.03;;;14.93;52.17
58373;BME280;44177;43.356;27.672;2023-04-22T06:49:54;98060.72;;;14.86;52.28
58373;BME280;44177;43.356;27.672;2023-04-22T06:52:19;98058.97;;;14.66;52.68
58373;BME280;44177;43.356;27.672;2023-04-22T06:54:46;98064.38;;;14.63;52.95
58373;BME280;44177;43.356;27.672;2023-04-22T06:57:11;98070.34;;;14.68;53.65
58373;BME280;44177;43.356;27.672;2023-04-22T06:59:37;98061.38;;;14.75;51.61
58373;BME280;44177;43.356;27.672;2023-04-22T07:02:02;98056.78;;;14.87;51.58
58373;BME280;44177;43.356;27.672;2023-04-22T07:04:28;98069.28;;;14.80;52.30
58373;BME280;44177;43.356;27.672;2023-04-22T07:06:55;98072.75;;;15.15;50.68
58373;BME280;44177;43.356;27.672;2023-04-22T07:09:21;98064.22;;;15.31;50.86
58373;BME280;44177;43.356;27.672;2023-04-22T07:11:46;98061.09;;;15.36;49.94
58373;BME280;44177;43.356;27.672;2023-04-22T07:14:12;98068.75;;;15.64;49.79
58373;BME280;44177;43.356;27.672;2023-04-22T07:16:37;98058.00;;;16.04;49.75
58373;BME280;44177;43.356;27.672;2023-04-22T07:19:03;98061.25;;;16.35;48.29
58373;BME280;44177;43.356;27.672;2023-04-22T07:21:30;98047.50;;;16.39;47.17
58373;BME280;44177;43.356;27.672;2023-04-22T07:23:57;98068.06;;;16.85;47.17
58373;BME280;44177;43.356;27.672;2023-04-22T07:26:23;98071.25;;;17.16;46.73
58373;BME280;44177;43.356;27.672;2023-04-22T07:28:48;98064.16;;;17.33;46.03
58373;BME280;44177;43.356;27.672;2023-04-22T07:31:14;98066.47;;;17.63;45.77
58373;BME280;44177;43.356;27.672;2023-04-22T07:33:40;98066.41;;;17.99;45.25
58373;BME280;44177;43.356;27.672;2023-04-22T07:36:05;98066.19;;;18.43;42.42
58373;BME280;44177;43.356;27.672;2023-04-22T07:38:31;98063.19;;;18.12;43.64
58373;BME280;44177;43.356;27.672;2023-04-22T07:40:56;98060.94;;;18.67;42.15
58373;BME280;44177;43.356;27.672;2023-04-22T07:43:22;98044.44;;;18.56;42.13
58373;BME280;44177;43.356;27.672;2023-04-22T07:45:47;98068.16;;;19.13;40.70
58373;BME280;44177;43.356;27.672;2023-04-22T07:48:12;98064.19;;;19.14;41.31
58373;BME280;44177;43.356;27.672;2023-04-22T07:50:38;98059.31;;;18.76;41.96
58373;BME280;44177;43.356;27.672;2023-04-22T07:53:04;98070.94;;;18.42;42.27
58373;BME280;44177;43.356;27.672;2023-04-22T07:55:30;98070.22;;;18.27;43.35
58373;BME280;44177;43.356;27.672;2023-04-22T07:57:56;98070.78;;;18.71;41.77
58373;BME280;44177;43.356;27.672;2023-04-22T08:00:21;98060.56;;;18.65;40.80
58373;BME280;44177;43.356;27.672;2023-04-22T08:02:46;98065.34;;;18.57;41.64
58373;BME280;44177;43.356;27.672;2023-04-22T08:05:12;98067.53;;;18.87;41.99
58373;BME280;44177;43.356;27.672;2023-04-22T08:07:37;98066.38;;;18.81;40.05
58373;BME280;44177;43.356;27.672;2023-04-22T08:10:04;98059.63;;;18.93;40.14
58373;BME280;44177;43.356;27.672;2023-04-22T08:12:29;98078.63;;;18.80;40.88
58373;BME280;44177;43.356;27.672;2023-04-22T08:14:55;98077.91;;;18.69;40.00
58373;BME280;44177;43.356;27.672;2023-04-22T08:17:22;98071.44;;;18.97;41.32
58373;BME280;44177;43.356;27.672;2023-04-22T08:19:47;98072.97;;;19.02;41.17
58373;BME280;44177;43.356;27.672;2023-04-22T08:22:14;98080.94;;;18.89;40.36
58373;BME280;44177;43.356;27.672;2023-04-22T08:24:39;98071.34;;;18.41;40.76
58373;BME280;44177;43.356;27.672;2023-04-22T08:27:05;98075.69;;;19.09;41.44
58373;BME280;44177;43.356;27.672;2023-04-22T08:29:31;98070.34;;;19.33;40.13
58373;BME280;44177;43.356;27.672;2023-04-22T08:31:57;98067.09;;;19.45;39.09
58373;BME280;44177;43.356;27.672;2023-04-22T08:34:22;98058.13;;;19.72;39.04
58373;BME280;44177;43.356;27.672;2023-04-22T08:36:50;98065.59;;;20.13;39.04
58373;BME280;44177;43.356;27.672;2023-04-22T08:39:15;98059.66;;;19.77;37.48
58373;BME280;44177;43.356;27.672;2023-04-22T08:41:43;98038.69;;;20.14;38.70
58373;BME280;44177;43.356;27.672;2023-04-22T08:44:09;98059.59;;;20.49;36.08
58373;BME280;44177;43.356;27.672;2023-04-22T08:46:35;98045.81;;;20.73;36.71
58373;BME280;44177;43.356;27.672;2023-04-22T08:49:02;98053.47;;;20.93;38.06
58373;BME280;44177;43.356;27.672;2023-04-22T08:51:30;98046.84;;;21.34;37.09
58373;BME280;44177;43.356;27.672;2023-04-22T08:53:58;98042.50;;;21.57;37.09
58373;BME280;44177;43.356;27.672;2023-04-22T08:56:24;98043.66;;;21.59;35.58
58373;BME280;44177;43.356;27.672;2023-04-22T08:58:50;98039.97;;;21.86;36.76
58373;BME280;44177;43.356;27.672;2023-04-22T09:01:17;98050.72;;;21.17;36.20
58373;BME280;44177;43.356;27.672;2023-04-22T09:03:43;98053.59;;;21.57;35.49
58373;BME280;44177;43.356;27.672;2023-04-22T09:06:10;98063.19;;;21.76;35.69
58373;BME280;44177;43.356;27.672;2023-04-22T09:08:36;98051.50;;;21.85;35.80
58373;BME280;44177;43.356;27.672;2023-04-22T09:11:03;98054.88;;;21.96;36.08
58373;BME280;44177;43.356;27.672;2023-04-22T09:13:28;98052.28;;;21.65;34.68
58373;BME280;44177;43.356;27.672;2023-04-22T09:15:54;98040.19;;;21.04;34.98
58373;BME280;44177;43.356;27.672;2023-04-22T09:18:19;98054.28;;;21.85;35.35
58373;BME280;44177;43.356;27.672;2023-04-22T09:20:48;98052.56;;;22.31;35.42
58373;BME280;44177;43.356;27.672;2023-04-22T09:23:14;98047.38;;;22.13;34.46
58373;BME280;44177;43.356;27.672;2023-04-22T09:25:40;98046.09;;;22.75;34.60
58373;BME280;44177;43.356;27.672;2023-04-22T09:28:10;98043.16;;;22.98;34.13
58373;BME280;44177;43.356;27.672;2023-04-22T09:30:36;98040.13;;;23.26;32.35
58373;BME280;44177;43.356;27.672;2023-04-22T09:33:04;98047.59;;;23.75;32.33
58373;BME280;44177;43.356;27.672;2023-04-22T09:35:35;98039.81;;;23.53;31.56
58373;BME280;44177;43.356;27.672;2023-04-22T09:38:02;98038.59;;;23.54;33.16
58373;BME280;44177;43.356;27.672;2023-04-22T09:40:29;98039.06;;;23.65;32.50
58373;BME280;44177;43.356;27.672;2023-04-22T09:42:58;98050.88;;;23.07;32.60
58373;BME280;44177;43.356;27.672;2023-04-22T09:45:26;98044.88;;;23.42;32.71
58373;BME280;44177;43.356;27.672;2023-04-22T09:47:54;98044.50;;;23.86;32.93
58373;BME280;44177;43.356;27.672;2023-04-22T09:50:21;98030.44;;;24.06;32.41
58373;BME280;44177;43.356;27.672;2023-04-22T09:52:53;98049.59;;;24.04;31.82
58373;BME280;44177;43.356;27.672;2023-04-22T09:55:21;98049.75;;;23.54;31.92
58373;BME280;44177;43.356;27.672;2023-04-22T09:57:50;98054.28;;;24.07;31.48
58373;BME280;44177;43.356;27.672;2023-04-22T10:00:16;98052.34;;;23.12;32.82
58373;BME280;44177;43.356;27.672;2023-04-22T10:02:42;98049.13;;;23.13;33.09
58373;BME280;44177;43.356;27.672;2023-04-22T10:05:08;98044.53;;;23.40;33.23
58373;BME280;44177;43.356;27.672;2023-04-22T10:07:34;98034.75;;;23.94;32.59
58373;BME280;44177;43.356;27.672;2023-04-22T10:10:01;98057.13;;;23.44;30.93
58373;BME280;44177;43.356;27.672;2023-04-22T10:12:27;98064.78;;;22.54;33.67
58373;BME280;44177;43.356;27.672;2023-04-22T10:14:53;98060.06;;;22.14;36.25
58373;BME280;44177;43.356;27.672;2023-04-22T10:17:20;98057.78;;;22.09;34.95
58373;BME280;44177;43.356;27.672;2023-04-22T10:19:46;98059.06;;;21.84;36.03
58373;BME280;44177;43.356;27.672;2023-04-22T10:22:12;98065.16;;;21.52;35.73
58373;BME280;44177;43.356;27.672;2023-04-22T10:24:38;98062.25;;;21.11;36.43
58373;BME280;44177;43.356;27.672;2023-04-22T10:27:05;98050.78;;;21.60;36.65
58373;BME280;44177;43.356;27.672;2023-04-22T10:29:38;98063.97;;;21.29;36.89
58373;BME280;44177;43.356;27.672;2023-04-22T10:34:43;98053.03;;;22.83;34.06
58373;BME280;44177;43.356;27.672;2023-04-22T10:37:10;98042.25;;;22.68;34.23
58373;BME280;44177;43.356;27.672;2023-04-22T10:39:37;98049.53;;;22.62;35.22
58373;BME280;44177;43.356;27.672;2023-04-22T10:44:53;98047.06;;;23.01;32.12
58373;BME280;44177;43.356;27.672;2023-04-22T10:47:31;98043.22;;;23.74;33.21
58373;BME280;44177;43.356;27.672;2023-04-22T10:50:16;98038.34;;;24.07;33.09
58373;BME280;44177;43.356;27.672;2023-04-22T10:52:42;98042.97;;;23.06;32.78
58373;BME280;44177;43.356;27.672;2023-04-22T10:55:08;98049.59;;;23.28;32.83
58373;BME280;44177;43.356;27.672;2023-04-22T10:57:42;98043.72;;;22.36;33.18
58373;BME280;44177;43.356;27.672;2023-04-22T11:00:18;98043.47;;;22.67;33.52
58373;BME280;44177;43.356;27.672;2023-04-22T11:02:44;98030.44;;;23.47;32.59
58373;BME280;44177;43.356;27.672;2023-04-22T11:05:30;98036.75;;;24.23;32.98
58373;BME280;44177;43.356;27.672;2023-04-22T11:08:28;98028.19;;;24.82;31.48
58373;BME280;44177;43.356;27.672;2023-04-22T11:11:07;98022.84;;;23.47;33.03
58373;BME280;44177;43.356;27.672;2023-04-22T11:13:33;98036.75;;;22.48;33.46
58373;BME280;44177;43.356;27.672;2023-04-22T11:15:58;98035.44;;;21.96;34.08
58373;BME280;44177;43.356;27.672;2023-04-22T11:18:25;98033.75;;;23.25;34.30
58373;BME280;44177;43.356;27.672;2023-04-22T11:20:51;98021.66;;;23.78;33.90
58373;BME280;44177;43.356;27.672;2023-04-22T11:23:26;98026.56;;;23.87;32.17
58373;BME280;44177;43.356;27.672;2023-04-22T11:25:59;98043.69;;;22.40;33.86
58373;BME280;44177;43.356;27.672;2023-04-22T11:28:25;98044.66;;;22.09;35.39
58373;BME280;44177;43.356;27.672;2023-04-22T11:30:51;98049.59;;;21.82;36.09
58373;BME280;44177;43.356;27.672;2023-04-22T11:33:17;98044.78;;;21.14;36.21
58373;BME280;44177;43.356;27.672;2023-04-22T11:35:43;98047.44;;;20.98;37.38
58373;BME280;44177;43.356;27.672;2023-04-22T11:38:09;98046.88;;;20.83;38.73
58373;BME280;44177;43.356;27.672;2023-04-22T11:40:42;98048.22;;;20.71;38.27
58373;BME280;44177;43.356;27.672;2023-04-22T11:43:09;98046.66;;;21.45;37.70
58373;BME280;44177;43.356;27.672;2023-04-22T11:45:36;98041.94;;;22.26;36.74
58373;BME280;44177;43.356;27.672;2023-04-22T11:48:05;98045.53;;;21.42;36.81
58373;BME280;44177;43.356;27.672;2023-04-22T11:50:33;98045.75;;;21.28;36.94
58373;BME280;44177;43.356;27.672;2023-04-22T11:53:04;98041.28;;;20.87;37.78
58373;BME280;44177;43.356;27.672;2023-04-22T11:55:34;98047.13;;;20.34;37.60
58373;BME280;44177;43.356;27.672;2023-04-22T11:58:06;98053.00;;;21.22;37.69
58373;BME280;44177;43.356;27.672;2023-04-22T12:00:46;98040.94;;;22.36;35.62
58373;BME280;44177;43.356;27.672;2023-04-22T12:03:13;98043.72;;;22.57;34.94
58373;BME280;44177;43.356;27.672;2023-04-22T12:06:02;98045.59;;;21.83;35.42
58373;BME280;44177;43.356;27.672;2023-04-22T12:08:31;98041.59;;;22.44;34.55
58373;BME280;44177;43.356;27.672;2023-04-22T12:10:59;98046.97;;;23.05;34.29
58373;BME280;44177;43.356;27.672;2023-04-22T12:13:31;98042.78;;;23.46;33.04
58373;BME280;44177;43.356;27.672;2023-04-22T12:16:01;98024.44;;;23.78;32.67
58373;BME280;44177;43.356;27.672;2023-04-22T12:18:33;98042.34;;;22.98;33.19
58373;BME280;44177;43.356;27.672;2023-04-22T12:23:25;98042.03;;;22.02;34.27
58373;BME280;44177;43.356;27.672;2023-04-22T12:25:51;98043.91;;;22.99;33.33
58373;BME280;44177;43.356;27.672;2023-04-22T12:28:16;98027.06;;;23.69;32.26
58373;BME280;44177;43.356;27.672;2023-04-22T12:30:42;98033.03;;;24.13;32.84
58373;BME280;44177;43.356;27.672;2023-04-22T12:33:07;98037.03;;;22.87;32.00
58373;BME280;44177;43.356;27.672;2023-04-22T12:35:33;98032.31;;;22.51;33.46
58373;BME280;44177;43.356;27.672;2023-04-22T12:37:59;98045.78;;;22.32;33.96
58373;BME280;44177;43.356;27.672;2023-04-22T12:40:24;98037.06;;;23.20;33.87
58373;BME280;44177;43.356;27.672;2023-04-22T12:42:50;98034.72;;;23.02;33.76
58373;BME280;44177;43.356;27.672;2023-04-22T12:45:15;98048.03;;;22.58;34.55
58373;BME280;44177;43.356;27.672;2023-04-22T12:47:41;98041.13;;;22.09;34.14
58373;BME280;44177;43.356;27.672;2023-04-22T12:50:07;98041.66;;;21.60;34.93
58373;BME280;44177;43.356;27.672;2023-04-22T12:52:33;98038.34;;;20.97;35.93
58373;BME280;44177;43.356;27.672;2023-04-22T12:54:59;98043.81;;;20.46;36.03
58373;BME280;44177;43.356;27.672;2023-04-22T12:57:25;98016.75;;;20.27;36.76
58373;BME280;44177;43.356;27.672;2023-04-22T12:59:50;98028.41;;;20.14;37.40